sensor_id;sensor_type;location;lat;lon;timestamp;pressure;altitude;pressure_sealevel;temperature;humidity
45523;BME280;31254;51.680;5.394;2023-12-22T00:01:18;100365.69;;;9.06;97.19
45523;BME280;31254;51.680;5.394;2023-12-22T00:03:45;100364.81;;;9.05;97.42
45523;BME280;31254;51.680;5.394;2023-12-22T00:06:14;100356.44;;;9.17;96.36
45523;BME280;31254;51.680;5.394;2023-12-22T00:08:40;100230.03;;;8.37;96.42
45523;BME280;31254;51.680;5.394;2023-12-22T00:11:07;100158.22;;;7.75;96.98
45523;BME280;31254;51.680;5.394;2023-12-22T00:13:33;99816.50;;;5.66;96.23
45523;BME280;31254;51.680;5.394;2023-12-22T00:16:01;100262.94;;;8.44;97.05
45523;BME280;31254;51.680;5.394;2023-12-22T00:18:28;100336.16;;;8.83;96.88
45523;BME280;31254;51.680;5.394;2023-12-22T00:20:54;100330.78;;;8.73;97.70
45523;BME280;31254;51.680;5.394;2023-12-22T00:23:21;100386.63;;;8.95;97.73
45523;BME280;31254;51.680;5.394;2023-12-22T00:25:47;100303.44;;;8.37;97.36
45523;BME280;31254;51.680;5.394;2023-12-22T00:28:14;100337.84;;;8.56;97.35
45523;BME280;31254;51.680;5.394;2023-12-22T00:30:41;100392.69;;;8.89;97.77
45523;BME280;31254;51.680;5.394;2023-12-22T00:33:08;100360.69;;;8.73;97.46
45523;BME280;31254;51.680;5.394;2023-12-22T00:35:34;100388.09;;;8.90;97.55
45523;BME280;31254;51.680;5.394;2023-12-22T00:38:02;100385.06;;;8.93;97.72
45523;BME280;31254;51.680;5.394;2023-12-22T00:40:29;100276.25;;;8.28;97.64
45523;BME280;31254;51.680;5.394;2023-12-22T00:42:55;100369.34;;;8.87;97.51
45523;BME280;31254;51.680;5.394;2023-12-22T00:45:22;100284.16;;;8.21;97.34
45523;BME280;31254;51.680;5.394;2023-12-22T00:47:48;100399.28;;;8.87;97.93
45523;BME280;31254;51.680;5.394;2023-12-22T00:50:15;100387.09;;;8.91;97.66
45523;BME280;31254;51.680;5.394;2023-12-22T00:52:42;100380.09;;;8.88;97.63
45523;BME280;31254;51.680;5.394;2023-12-22T00:55:08;100291.66;;;8.47;97.79
45523;BME280;31254;51.680;5.394;2023-12-22T00:57:35;100296.09;;;8.48;97.56
45523;BME280;31254;51.680;5.394;2023-12-22T01:00:02;100284.22;;;8.39;97.31
45523;BME280;31254;51.680;5.394;2023-12-22T01:02:31;100351.75;;;8.81;96.86
45523;BME280;31254;51.680;5.394;2023-12-22T01:04:57;100332.00;;;8.51;97.65
45523;BME280;31254;51.680;5.394;2023-12-22T01:07:24;100362.63;;;8.91;97.20
45523;BME280;31254;51.680;5.394;2023-12-22T01:09:52;100185.50;;;7.83;96.90
45523;BME280;31254;51.680;5.394;2023-12-22T01:12:20;100379.53;;;8.85;97.57
45523;BME280;31254;51.680;5.394;2023-12-22T01:14:46;100363.28;;;8.65;97.57
45523;BME280;31254;51.680;5.394;2023-12-22T01:17:15;100335.84;;;8.49;97.43
45523;BME280;31254;51.680;5.394;2023-12-22T01:19:41;100375.47;;;8.61;97.32
45523;BME280;31254;51.680;5.394;2023-12-22T01:22:08;100404.06;;;8.75;97.49
45523;BME280;31254;51.680;5.394;2023-12-22T01:24:34;100397.31;;;8.69;97.60
45523;BME280;31254;51.680;5.394;2023-12-22T01:27:06;100366.78;;;8.48;97.31
45523;BME280;31254;51.680;5.394;2023-12-22T01:29:32;100310.47;;;8.20;97.12
45523;BME280;31254;51.680;5.394;2023-12-22T01:31:58;100356.06;;;8.46;97.39
45523;BME280;31254;51.680;5.394;2023-12-22T01:34:25;100422.22;;;8.74;97.12
45523;BME280;31254;51.680;5.394;2023-12-22T01:36:52;100378.38;;;8.50;97.28
45523;BME280;31254;51.680;5.394;2023-12-22T01:39:18;100368.47;;;8.49;97.13
45523;BME280;31254;51.680;5.394;2023-12-22T01:41:45;100349.63;;;8.37;97.09
45523;BME280;31254;51.680;5.394;2023-12-22T01:44:11;100417.06;;;8.71;97.10
45523;BME280;31254;51.680;5.394;2023-12-22T01:46:38;100335.34;;;8.26;97.09
45523;BME280;31254;51.680;5.394;2023-12-22T01:49:05;100407.66;;;8.66;97.29
45523;BME280;31254;51.680;5.394;2023-12-22T01:51:34;100379.34;;;8.49;97.12
45523;BME280;31254;51.680;5.394;2023-12-22T01:54:02;100423.41;;;8.62;97.09
45523;BME280;31254;51.680;5.394;2023-12-22T01:56:28;100394.81;;;8.38;97.36
45523;BME280;31254;51.680;5.394;2023-12-22T01:58:57;100461.19;;;8.65;96.74
45523;BME280;31254;51.680;5.394;2023-12-22T02:01:25;100432.97;;;8.66;96.97
45523;BME280;31254;51.680;5.394;2023-12-22T02:03:54;100426.53;;;8.67;96.97
45523;BME280;31254;51.680;5.394;2023-12-22T02:06:21;100283.69;;;7.88;96.83
45523;BME280;31254;51.680;5.394;2023-12-22T02:08:48;100184.63;;;7.25;96.74
45523;BME280;31254;51.680;5.394;2023-12-22T02:11:15;100422.38;;;8.63;97.11
45523;BME280;31254;51.680;5.394;2023-12-22T02:13:45;100363.53;;;8.24;96.86
45523;BME280;31254;51.680;5.394;2023-12-22T02:18:59;100418.69;;;8.64;96.42
45523;BME280;31254;51.680;5.394;2023-12-22T02:21:27;100264.16;;;7.65;96.72
45523;BME280;31254;51.680;5.394;2023-12-22T02:23:54;100340.91;;;8.24;96.17
45523;BME280;31254;51.680;5.394;2023-12-22T02:26:38;100386.25;;;8.43;96.69
45523;BME280;31254;51.680;5.394;2023-12-22T02:29:08;100318.13;;;7.97;96.53
45523;BME280;31254;51.680;5.394;2023-12-22T02:31:38;100409.41;;;8.57;96.58
45523;BME280;31254;51.680;5.394;2023-12-22T02:34:14;100339.50;;;8.20;96.66
45523;BME280;31254;51.680;5.394;2023-12-22T02:36:45;100422.53;;;8.62;95.65
45523;BME280;31254;51.680;5.394;2023-12-22T02:39:14;100326.81;;;8.11;95.98
45523;BME280;31254;51.680;5.394;2023-12-22T02:41:41;100400.97;;;8.50;95.62
45523;BME280;31254;51.680;5.394;2023-12-22T02:44:08;100418.00;;;8.52;96.53
45523;BME280;31254;51.680;5.394;2023-12-22T02:46:34;100383.78;;;8.40;96.34
45523;BME280;31254;51.680;5.394;2023-12-22T02:49:01;100373.38;;;8.26;96.35
45523;BME280;31254;51.680;5.394;2023-12-22T02:51:28;100410.69;;;8.53;96.47
45523;BME280;31254;51.680;5.394;2023-12-22T02:53:54;100395.97;;;8.55;96.53
45523;BME280;31254;51.680;5.394;2023-12-22T02:56:21;100368.81;;;8.46;96.44
45523;BME280;31254;51.680;5.394;2023-12-22T02:58:47;100372.53;;;8.45;96.35
45523;BME280;31254;51.680;5.394;2023-12-22T03:01:14;100363.03;;;8.49;96.00
45523;BME280;31254;51.680;5.394;2023-12-22T03:03:40;100349.91;;;8.34;96.38
45523;BME280;31254;51.680;5.394;2023-12-22T03:06:07;100393.22;;;8.65;96.32
45523;BME280;31254;51.680;5.394;2023-12-22T03:08:34;100376.31;;;8.62;96.41
45523;BME280;31254;51.680;5.394;2023-12-22T03:11:00;100363.00;;;8.68;95.87
45523;BME280;31254;51.680;5.394;2023-12-22T03:13:27;100293.88;;;8.23;95.79
45523;BME280;31254;51.680;5.394;2023-12-22T03:15:53;100277.34;;;8.07;95.90
45523;BME280;31254;51.680;5.394;2023-12-22T03:18:20;100358.88;;;8.54;95.78
45523;BME280;31254;51.680;5.394;2023-12-22T03:20:47;100374.72;;;8.69;95.85
45523;BME280;31254;51.680;5.394;2023-12-22T03:23:13;100380.16;;;8.69;95.71
45523;BME280;31254;51.680;5.394;2023-12-22T03:25:40;100279.63;;;8.12;95.56
45523;BME280;31254;51.680;5.394;2023-12-22T03:28:06;100312.75;;;8.25;95.40
45523;BME280;31254;51.680;5.394;2023-12-22T03:30:33;100394.31;;;8.72;95.66
45523;BME280;31254;51.680;5.394;2023-12-22T03:33:02;100393.31;;;8.73;95.40
45523;BME280;31254;51.680;5.394;2023-12-22T03:35:28;100410.53;;;8.64;95.18
45523;BME280;31254;51.680;5.394;2023-12-22T03:37:55;100293.91;;;8.14;95.48
45523;BME280;31254;51.680;5.394;2023-12-22T03:40:22;100404.31;;;8.82;94.98
45523;BME280;31254;51.680;5.394;2023-12-22T03:42:48;100386.56;;;8.77;94.85
45523;BME280;31254;51.680;5.394;2023-12-22T03:45:15;100314.75;;;8.33;94.73
45523;BME280;31254;51.680;5.394;2023-12-22T03:47:41;100356.97;;;8.65;94.59
45523;BME280;31254;51.680;5.394;2023-12-22T03:50:08;100381.88;;;8.70;94.68
45523;BME280;31254;51.680;5.394;2023-12-22T03:52:35;100373.06;;;8.38;94.82
45523;BME280;31254;51.680;5.394;2023-12-22T03:55:01;100168.59;;;7.42;94.95
45523;BME280;31254;51.680;5.394;2023-12-22T03:57:28;100255.25;;;7.82;94.99
45523;BME280;31254;51.680;5.394;2023-12-22T03:59:54;100346.19;;;8.35;94.75
45523;BME280;31254;51.680;5.394;2023-12-22T04:02:21;99898.41;;;5.58;94.46
45523;BME280;31254;51.680;5.394;2023-12-22T04:04:48;100343.59;;;8.44;94.39
45523;BME280;31254;51.680;5.394;2023-12-22T04:07:15;100317.84;;;7.91;95.63
45523;BME280;31254;51.680;5.394;2023-12-22T04:09:41;100372.00;;;8.12;96.04
45523;BME280;31254;51.680;5.394;2023-12-22T04:12:08;100380.69;;;8.25;95.60
45523;BME280;31254;51.680;5.394;2023-12-22T04:14:34;100282.28;;;7.64;95.68
45523;BME280;31254;51.680;5.394;2023-12-22T04:17:01;100405.69;;;8.48;95.81
45523;BME280;31254;51.680;5.394;2023-12-22T04:19:28;100407.72;;;8.46;95.34
45523;BME280;31254;51.680;5.394;2023-12-22T04:21:54;100368.84;;;8.16;95.97
45523;BME280;31254;51.680;5.394;2023-12-22T04:24:21;100439.50;;;8.46;96.63
45523;BME280;31254;51.680;5.394;2023-12-22T04:26:47;100429.31;;;8.28;96.39
45523;BME280;31254;51.680;5.394;2023-12-22T04:29:14;100435.59;;;8.29;96.44
45523;BME280;31254;51.680;5.394;2023-12-22T04:31:41;100339.59;;;7.71;96.70
45523;BME280;31254;51.680;5.394;2023-12-22T04:34:07;100419.16;;;8.20;96.25
45523;BME280;31254;51.680;5.394;2023-12-22T04:36:35;100296.31;;;7.50;96.48
45523;BME280;31254;51.680;5.394;2023-12-22T04:39:01;100438.59;;;8.26;96.48
45523;BME280;31254;51.680;5.394;2023-12-22T04:41:28;100387.72;;;8.08;96.29
45523;BME280;31254;51.680;5.394;2023-12-22T04:43:55;100374.91;;;7.81;96.79
45523;BME280;31254;51.680;5.394;2023-12-22T04:46:21;100362.44;;;7.88;96.34
45523;BME280;31254;51.680;5.394;2023-12-22T04:48:48;100447.78;;;8.44;96.48
45523;BME280;31254;51.680;5.394;2023-12-22T04:51:14;100446.91;;;8.44;96.42
45523;BME280;31254;51.680;5.394;2023-12-22T04:53:41;100246.31;;;7.23;96.24
45523;BME280;31254;51.680;5.394;2023-12-22T04:56:07;100425.44;;;8.31;95.62
45523;BME280;31254;51.680;5.394;2023-12-22T04:58:34;100379.56;;;8.08;95.61
45523;BME280;31254;51.680;5.394;2023-12-22T05:01:00;100462.06;;;8.56;95.40
45523;BME280;31254;51.680;5.394;2023-12-22T05:03:27;100465.06;;;8.53;95.56
45523;BME280;31254;51.680;5.394;2023-12-22T05:05:54;100435.88;;;8.35;95.48
45523;BME280;31254;51.680;5.394;2023-12-22T05:08:21;100382.28;;;8.08;95.54
45523;BME280;31254;51.680;5.394;2023-12-22T05:10:47;100466.75;;;8.73;94.86
45523;BME280;31254;51.680;5.394;2023-12-22T05:13:14;100467.44;;;8.75;94.46
45523;BME280;31254;51.680;5.394;2023-12-22T05:15:40;100304.31;;;7.71;94.73
45523;BME280;31254;51.680;5.394;2023-12-22T05:18:07;100199.78;;;7.18;94.60
45523;BME280;31254;51.680;5.394;2023-12-22T05:20:34;100434.06;;;8.46;94.38
45523;BME280;31254;51.680;5.394;2023-12-22T05:23:01;100381.13;;;8.20;95.31
45523;BME280;31254;51.680;5.394;2023-12-22T05:25:27;100463.16;;;8.73;94.97
45523;BME280;31254;51.680;5.394;2023-12-22T05:27:55;100431.16;;;8.57;94.22
45523;BME280;31254;51.680;5.394;2023-12-22T05:30:22;100391.28;;;8.28;94.57
45523;BME280;31254;51.680;5.394;2023-12-22T05:32:48;100464.84;;;8.84;94.21
45523;BME280;31254;51.680;5.394;2023-12-22T05:35:15;100356.97;;;8.17;93.46
45523;BME280;31254;51.680;5.394;2023-12-22T05:37:41;100289.69;;;7.82;94.12
45523;BME280;31254;51.680;5.394;2023-12-22T05:40:08;100306.66;;;8.13;93.71
45523;BME280;31254;51.680;5.394;2023-12-22T05:42:35;100406.34;;;8.80;93.49
45523;BME280;31254;51.680;5.394;2023-12-22T05:45:02;100437.06;;;8.90;93.72
45523;BME280;31254;51.680;5.394;2023-12-22T05:47:29;100466.53;;;8.94;93.92
45523;BME280;31254;51.680;5.394;2023-12-22T05:49:56;100337.31;;;8.33;93.62
45523;BME280;31254;51.680;5.394;2023-12-22T05:52:23;100399.34;;;8.67;93.75
45523;BME280;31254;51.680;5.394;2023-12-22T05:54:49;100383.34;;;8.54;93.17
45523;BME280;31254;51.680;5.394;2023-12-22T05:57:16;100436.72;;;9.03;93.84
45523;BME280;31254;51.680;5.394;2023-12-22T05:59:43;100440.47;;;8.92;93.53
45523;BME280;31254;51.680;5.394;2023-12-22T06:02:10;100444.63;;;8.96;93.72
45523;BME280;31254;51.680;5.394;2023-12-22T06:04:36;100373.22;;;8.37;93.97
45523;BME280;31254;51.680;5.394;2023-12-22T06:07:03;100320.53;;;8.10;94.22
45523;BME280;31254;51.680;5.394;2023-12-22T06:09:29;100400.66;;;8.53;94.56
45523;BME280;31254;51.680;5.394;2023-12-22T06:11:56;100334.38;;;8.17;94.76
45523;BME280;31254;51.680;5.394;2023-12-22T06:14:24;100321.38;;;8.11;94.42
45523;BME280;31254;51.680;5.394;2023-12-22T06:16:50;100442.66;;;8.88;94.68
45523;BME280;31254;51.680;5.394;2023-12-22T06:19:17;100451.00;;;8.77;94.59
45523;BME280;31254;51.680;5.394;2023-12-22T06:21:44;100253.69;;;7.80;94.44
45523;BME280;31254;51.680;5.394;2023-12-22T06:24:10;100454.84;;;8.74;95.29
45523;BME280;31254;51.680;5.394;2023-12-22T06:26:37;100390.22;;;8.49;94.98
45523;BME280;31254;51.680;5.394;2023-12-22T06:29:03;100408.56;;;8.47;94.69
45523;BME280;31254;51.680;5.394;2023-12-22T06:31:30;100439.00;;;8.70;95.10
45523;BME280;31254;51.680;5.394;2023-12-22T06:33:57;100449.88;;;8.70;95.35
45523;BME280;31254;51.680;5.394;2023-12-22T06:36:28;100429.72;;;8.53;95.12
45523;BME280;31254;51.680;5.394;2023-12-22T06:38:58;100454.91;;;8.55;95.80
45523;BME280;31254;51.680;5.394;2023-12-22T06:41:26;100442.75;;;8.59;95.42
45523;BME280;31254;51.680;5.394;2023-12-22T06:43:54;100435.00;;;8.64;95.12
45523;BME280;31254;51.680;5.394;2023-12-22T06:46:23;100456.84;;;8.82;95.14
45523;BME280;31254;51.680;5.394;2023-12-22T06:48:53;100465.72;;;8.74;95.46
45523;BME280;31254;51.680;5.394;2023-12-22T06:53:50;99906.34;;;5.30;94.93
45523;BME280;31254;51.680;5.394;2023-12-22T06:56:18;100364.13;;;8.18;95.22
45523;BME280;31254;51.680;5.394;2023-12-22T06:58:46;100287.97;;;7.91;95.02
45523;BME280;31254;51.680;5.394;2023-12-22T07:03:54;100398.81;;;8.54;95.20
45523;BME280;31254;51.680;5.394;2023-12-22T07:06:22;100402.38;;;8.54;95.13
45523;BME280;31254;51.680;5.394;2023-12-22T07:11:39;100440.78;;;8.89;94.93
45523;BME280;31254;51.680;5.394;2023-12-22T07:14:07;100409.09;;;8.60;94.69
45523;BME280;31254;51.680;5.394;2023-12-22T07:16:34;100372.75;;;8.61;94.57
45523;BME280;31254;51.680;5.394;2023-12-22T07:19:01;100312.78;;;8.15;94.74
45523;BME280;31254;51.680;5.394;2023-12-22T07:21:28;100396.50;;;8.59;95.23
45523;BME280;31254;51.680;5.394;2023-12-22T07:23:54;100425.88;;;8.93;94.89
45523;BME280;31254;51.680;5.394;2023-12-22T07:26:21;100428.50;;;8.85;95.22
45523;BME280;31254;51.680;5.394;2023-12-22T07:28:48;100441.06;;;8.86;95.29
45523;BME280;31254;51.680;5.394;2023-12-22T07:31:18;100406.50;;;8.68;95.41
45523;BME280;31254;51.680;5.394;2023-12-22T07:33:45;100398.22;;;8.60;95.41
45523;BME280;31254;51.680;5.394;2023-12-22T07:36:13;100428.91;;;8.90;95.25
45523;BME280;31254;51.680;5.394;2023-12-22T07:38:40;100443.91;;;8.94;95.16
45523;BME280;31254;51.680;5.394;2023-12-22T07:41:07;100443.91;;;8.94;94.86
45523;BME280;31254;51.680;5.394;2023-12-22T07:43:34;100416.44;;;8.87;94.29
45523;BME280;31254;51.680;5.394;2023-12-22T07:46:01;100394.72;;;8.77;94.34
45523;BME280;31254;51.680;5.394;2023-12-22T07:48:28;100438.16;;;8.97;94.62
45523;BME280;31254;51.680;5.394;2023-12-22T07:50:55;100436.03;;;9.01;94.76
45523;BME280;31254;51.680;5.394;2023-12-22T07:53:22;100323.28;;;8.38;94.66
45523;BME280;31254;51.680;5.394;2023-12-22T07:55:49;100407.03;;;8.82;94.78
45523;BME280;31254;51.680;5.394;2023-12-22T07:58:15;100375.47;;;8.61;94.48
45523;BME280;31254;51.680;5.394;2023-12-22T08:00:43;100429.63;;;8.82;95.23
45523;BME280;31254;51.680;5.394;2023-12-22T08:03:12;100433.50;;;8.89;95.04
45523;BME280;31254;51.680;5.394;2023-12-22T08:05:39;100332.22;;;8.20;95.27
45523;BME280;31254;51.680;5.394;2023-12-22T08:08:06;100437.69;;;8.74;96.25
45523;BME280;31254;51.680;5.394;2023-12-22T08:10:33;100435.94;;;8.73;96.53
45523;BME280;31254;51.680;5.394;2023-12-22T08:12:59;100417.25;;;8.60;96.45
45523;BME280;31254;51.680;5.394;2023-12-22T08:15:26;100467.44;;;8.75;95.91
45523;BME280;31254;51.680;5.394;2023-12-22T08:18:02;100296.28;;;7.79;96.48
45523;BME280;31254;51.680;5.394;2023-12-22T08:20:29;100451.13;;;8.75;96.34
45523;BME280;31254;51.680;5.394;2023-12-22T08:23:02;100402.28;;;8.46;96.81
45523;BME280;31254;51.680;5.394;2023-12-22T08:25:35;100454.16;;;8.72;96.29
45523;BME280;31254;51.680;5.394;2023-12-22T08:28:02;100402.50;;;8.63;96.65
45523;BME280;31254;51.680;5.394;2023-12-22T08:30:29;100434.81;;;8.75;96.65
45523;BME280;31254;51.680;5.394;2023-12-22T08:32:55;100319.38;;;8.03;96.34
45523;BME280;31254;51.680;5.394;2023-12-22T08:35:22;100400.22;;;8.58;96.52
45523;BME280;31254;51.680;5.394;2023-12-22T08:37:49;100297.22;;;8.08;96.26
45523;BME280;31254;51.680;5.394;2023-12-22T08:40:15;100427.47;;;8.86;96.66
45523;BME280;31254;51.680;5.394;2023-12-22T08:42:42;100250.81;;;7.81;96.58
45523;BME280;31254;51.680;5.394;2023-12-22T08:45:09;100313.19;;;8.20;96.79
45523;BME280;31254;51.680;5.394;2023-12-22T08:47:35;100329.31;;;8.32;96.67
45523;BME280;31254;51.680;5.394;2023-12-22T08:50:02;100316.03;;;8.29;96.58
45523;BME280;31254;51.680;5.394;2023-12-22T08:52:30;100377.00;;;8.73;96.33
45523;BME280;31254;51.680;5.394;2023-12-22T08:54:57;100344.56;;;8.62;96.09
45523;BME280;31254;51.680;5.394;2023-12-22T08:57:24;100414.41;;;8.99;96.59
45523;BME280;31254;51.680;5.394;2023-12-22T08:59:51;100331.59;;;8.36;97.10
45523;BME280;31254;51.680;5.394;2023-12-22T09:02:18;100360.13;;;8.70;96.76
45523;BME280;31254;51.680;5.394;2023-12-22T09:04:44;100354.69;;;8.70;96.83
45523;BME280;31254;51.680;5.394;2023-12-22T09:07:11;100414.41;;;8.99;96.87
45523;BME280;31254;51.680;5.394;2023-12-22T09:09:37;100383.84;;;8.77;97.26
45523;BME280;31254;51.680;5.394;2023-12-22T09:12:04;100421.25;;;9.03;96.70
45523;BME280;31254;51.680;5.394;2023-12-22T09:14:31;100346.72;;;8.49;96.80
45523;BME280;31254;51.680;5.394;2023-12-22T09:16:58;100402.09;;;8.95;96.51
45523;BME280;31254;51.680;5.394;2023-12-22T09:19:24;100392.22;;;8.94;96.73
45523;BME280;31254;51.680;5.394;2023-12-22T09:21:51;100374.13;;;8.75;96.69
45523;BME280;31254;51.680;5.394;2023-12-22T09:24:17;100367.06;;;8.82;96.41
45523;BME280;31254;51.680;5.394;2023-12-22T09:26:44;100288.94;;;8.47;96.37
45523;BME280;31254;51.680;5.394;2023-12-22T09:29:11;100319.78;;;8.65;96.00
45523;BME280;31254;51.680;5.394;2023-12-22T09:31:37;100374.53;;;9.08;96.39
45523;BME280;31254;51.680;5.394;2023-12-22T09:34:04;100409.56;;;9.21;96.65
45523;BME280;31254;51.680;5.394;2023-12-22T09:36:32;100298.94;;;8.84;95.48
45523;BME280;31254;51.680;5.394;2023-12-22T09:38:59;100302.19;;;8.87;95.47
45523;BME280;31254;51.680;5.394;2023-12-22T09:41:25;100340.41;;;8.86;95.61
45523;BME280;31254;51.680;5.394;2023-12-22T09:43:55;100372.44;;;9.20;95.88
45523;BME280;31254;51.680;5.394;2023-12-22T09:46:23;100374.72;;;9.24;95.39
45523;BME280;31254;51.680;5.394;2023-12-22T09:48:52;100414.81;;;9.50;95.13
45523;BME280;31254;51.680;5.394;2023-12-22T09:51:18;100411.50;;;9.56;95.20
45523;BME280;31254;51.680;5.394;2023-12-22T09:53:46;100333.25;;;9.12;94.90
45523;BME280;31254;51.680;5.394;2023-12-22T09:56:14;100399.78;;;9.46;95.32
45523;BME280;31254;51.680;5.394;2023-12-22T09:58:42;100353.84;;;9.15;96.07
45523;BME280;31254;51.680;5.394;2023-12-22T10:01:09;100383.28;;;9.29;95.77
45523;BME280;31254;51.680;5.394;2023-12-22T10:03:37;100359.16;;;9.17;95.85
45523;BME280;31254;51.680;5.394;2023-12-22T10:06:04;100221.16;;;8.35;95.63
45523;BME280;31254;51.680;5.394;2023-12-22T10:08:31;100390.50;;;9.21;96.31
45523;BME280;31254;51.680;5.394;2023-12-22T10:10:59;100235.66;;;8.26;96.67
45523;BME280;31254;51.680;5.394;2023-12-22T10:13:25;100406.25;;;9.27;97.13
45523;BME280;31254;51.680;5.394;2023-12-22T10:15:54;100324.59;;;8.71;96.92
45523;BME280;31254;51.680;5.394;2023-12-22T10:18:22;100397.09;;;9.18;97.02
45523;BME280;31254;51.680;5.394;2023-12-22T10:20:48;100264.34;;;8.38;96.43
45523;BME280;31254;51.680;5.394;2023-12-22T10:23:15;100385.91;;;9.21;96.38
45523;BME280;31254;51.680;5.394;2023-12-22T10:25:41;100411.38;;;9.30;96.43
45523;BME280;31254;51.680;5.394;2023-12-22T10:28:11;100346.00;;;8.84;96.74
45523;BME280;31254;51.680;5.394;2023-12-22T10:30:38;100244.97;;;8.23;96.58
45523;BME280;31254;51.680;5.394;2023-12-22T10:33:06;100303.63;;;8.64;96.82
45523;BME280;31254;51.680;5.394;2023-12-22T10:35:33;100349.47;;;8.86;96.38
45523;BME280;31254;51.680;5.394;2023-12-22T10:38:00;100404.75;;;9.32;97.07
45523;BME280;31254;51.680;5.394;2023-12-22T10:40:29;100350.66;;;9.02;96.65
45523;BME280;31254;51.680;5.394;2023-12-22T10:42:56;100379.19;;;9.43;95.60
45523;BME280;31254;51.680;5.394;2023-12-22T10:45:23;100406.97;;;9.47;95.98
45523;BME280;31254;51.680;5.394;2023-12-22T10:47:51;100422.81;;;9.33;96.19
45523;BME280;31254;51.680;5.394;2023-12-22T10:50:21;100421.03;;;9.42;96.12
45523;BME280;31254;51.680;5.394;2023-12-22T10:52:51;100384.31;;;9.28;96.27
45523;BME280;31254;51.680;5.394;2023-12-22T10:55:18;100280.84;;;8.65;95.81
45523;BME280;31254;51.680;5.394;2023-12-22T10:57:48;100286.72;;;8.70;96.75
45523;BME280;31254;51.680;5.394;2023-12-22T11:00:16;100360.19;;;9.15;96.91
45523;BME280;31254;51.680;5.394;2023-12-22T11:02:47;100405.00;;;9.39;97.21
45523;BME280;31254;51.680;5.394;2023-12-22T11:05:18;100370.13;;;9.25;96.79
45523;BME280;31254;51.680;5.394;2023-12-22T11:07:53;100363.59;;;9.18;97.26
45523;BME280;31254;51.680;5.394;2023-12-22T11:10:21;100332.78;;;8.99;97.00
45523;BME280;31254;51.680;5.394;2023-12-22T11:12:48;100362.69;;;9.27;96.53
45523;BME280;31254;51.680;5.394;2023-12-22T11:15:16;100406.97;;;9.65;96.04
45523;BME280;31254;51.680;5.394;2023-12-22T11:17:44;100352.13;;;9.42;95.68
45523;BME280;31254;51.680;5.394;2023-12-22T11:20:14;100298.81;;;9.03;95.93
45523;BME280;31254;51.680;5.394;2023-12-22T11:22:42;100288.06;;;9.02;95.87
45523;BME280;31254;51.680;5.394;2023-12-22T11:25:09;100410.66;;;9.74;95.77
45523;BME280;31254;51.680;5.394;2023-12-22T11:27:41;100406.97;;;9.65;95.80
45523;BME280;31254;51.680;5.394;2023-12-22T11:30:09;100296.41;;;9.18;96.37
45523;BME280;31254;51.680;5.394;2023-12-22T11:32:39;100295.78;;;9.06;95.53
45523;BME280;31254;51.680;5.394;2023-12-22T11:35:06;100393.19;;;9.66;96.32
45523;BME280;31254;51.680;5.394;2023-12-22T11:37:35;100384.81;;;9.78;95.93
45523;BME280;31254;51.680;5.394;2023-12-22T11:40:02;100379.13;;;9.71;96.18
45523;BME280;31254;51.680;5.394;2023-12-22T11:42:33;100374.97;;;9.67;95.87
45523;BME280;31254;51.680;5.394;2023-12-22T11:45:03;100374.13;;;9.84;95.49
45523;BME280;31254;51.680;5.394;2023-12-22T11:47:31;100325.19;;;9.57;95.52
45523;BME280;31254;51.680;5.394;2023-12-22T11:49:58;100364.25;;;9.83;95.65
45523;BME280;31254;51.680;5.394;2023-12-22T11:52:26;100142.00;;;8.66;95.09
45523;BME280;31254;51.680;5.394;2023-12-22T11:54:56;100310.72;;;9.74;94.95
45523;BME280;31254;51.680;5.394;2023-12-22T11:57:36;100299.47;;;9.51;94.66
45523;BME280;31254;51.680;5.394;2023-12-22T12:00:09;100352.41;;;9.93;94.22
45523;BME280;31254;51.680;5.394;2023-12-22T12:02:55;100376.53;;;10.05;94.74
45523;BME280;31254;51.680;5.394;2023-12-22T12:05:22;100345.88;;;9.85;94.98
45523;BME280;31254;51.680;5.394;2023-12-22T12:07:49;100280.31;;;9.61;94.50
45523;BME280;31254;51.680;5.394;2023-12-22T12:13:09;100367.34;;;10.06;94.85
45523;BME280;31254;51.680;5.394;2023-12-22T12:15:36;100364.63;;;10.06;94.79
45523;BME280;31254;51.680;5.394;2023-12-22T12:18:04;100353.88;;;10.05;95.28
45523;BME280;31254;51.680;5.394;2023-12-22T12:20:32;100172.88;;;8.93;94.83
45523;BME280;31254;51.680;5.394;2023-12-22T12:23:01;100293.53;;;9.74;94.83
45523;BME280;31254;51.680;5.394;2023-12-22T12:25:28;100233.88;;;9.26;95.78
45523;BME280;31254;51.680;5.394;2023-12-22T12:28:06;100303.53;;;9.73;95.29
45523;BME280;31254;51.680;5.394;2023-12-22T12:30:33;100341.19;;;9.96;95.72
45523;BME280;31254;51.680;5.394;2023-12-22T12:33:07;100347.16;;;9.99;96.13
45523;BME280;31254;51.680;5.394;2023-12-22T12:35:36;100349.53;;;9.94;96.04
45523;BME280;31254;51.680;5.394;2023-12-22T12:38:10;100329.75;;;9.92;96.64
45523;BME280;31254;51.680;5.394;2023-12-22T12:40:39;100171.63;;;8.87;96.37
45523;BME280;31254;51.680;5.394;2023-12-22T12:43:07;100309.00;;;9.73;96.26
45523;BME280;31254;51.680;5.394;2023-12-22T12:45:34;100242.31;;;9.33;96.06
45523;BME280;31254;51.680;5.394;2023-12-22T12:48:01;100276.19;;;9.57;95.92
45523;BME280;31254;51.680;5.394;2023-12-22T12:50:31;100294.63;;;9.63;96.70
45523;BME280;31254;51.680;5.394;2023-12-22T12:52:59;100351.31;;;10.03;96.26
45523;BME280;31254;51.680;5.394;2023-12-22T12:55:26;100357.59;;;10.04;96.60
45523;BME280;31254;51.680;5.394;2023-12-22T12:57:53;100187.72;;;8.99;96.08
45523;BME280;31254;51.680;5.394;2023-12-22T13:00:31;100364.25;;;10.01;96.60
45523;BME280;31254;51.680;5.394;2023-12-22T13:03:03;100145.91;;;8.82;96.71
45523;BME280;31254;51.680;5.394;2023-12-22T13:05:32;100359.22;;;10.15;95.94
45523;BME280;31254;51.680;5.394;2023-12-22T13:08:09;100367.56;;;10.13;96.02
45523;BME280;31254;51.680;5.394;2023-12-22T13:10:37;100367.09;;;10.18;96.23
45523;BME280;31254;51.680;5.394;2023-12-22T13:13:04;100250.13;;;9.54;95.77
45523;BME280;31254;51.680;5.394;2023-12-22T13:15:31;100243.13;;;9.51;95.87